Time;durP1;ratioP1;P1;durP2;ratioP2;P2;SDS_P1;SDS_P2;PMS_P1;PMS_P2;Temp;Humidity;BMP_temperature;BMP_pressure;BME280_temperature;BME280_humidity;BME280_pressure;Samples;Min_cycle;Max_cycle;Signal;HPM_P1;HPM_P2
2022/07/08 00:02:02;;;;;;;12.30;2.30;;;14.20;99.90;;;;;;5056516;28;20037;-87
2022/07/08 00:04:28;;;;;;;7.28;2.13;;;14.20;99.90;;;;;;5055261;28;20374;-88
2022/07/08 00:06:54;;;;;;;13.88;2.60;;;14.20;99.90;;;;;;5071689;28;20102;-87
2022/07/08 00:09:20;;;;;;;10.52;2.65;;;14.20;99.90;;;;;;5088466;28;20135;-88
2022/07/08 00:11:46;;;;;;;11.77;2.42;;;14.20;99.90;;;;;;5089528;28;20048;-87
2022/07/08 00:14:12;;;;;;;11.15;2.05;;;14.20;99.90;;;;;;5055523;28;20041;-87
2022/07/08 00:16:40;;;;;;;15.00;2.30;;;14.20;99.90;;;;;;5038045;28;20064;-87
2022/07/08 00:19:14;;;;;;;11.00;3.75;;;14.20;99.90;;;;;;5069180;28;20049;-88
2022/07/08 00:21:44;;;;;;;20.27;2.30;;;14.20;99.90;;;;;;5069489;28;20045;-87
2022/07/08 00:24:11;;;;;;;14.75;2.05;;;14.20;99.90;;;;;;5036914;28;20045;-87
2022/07/08 00:26:37;;;;;;;15.73;2.72;;;14.10;99.90;;;;;;5059391;28;20120;-87
2022/07/08 00:29:03;;;;;;;10.07;1.60;;;14.10;99.90;;;;;;5059261;28;20103;-87
2022/07/08 00:31:29;;;;;;;11.15;2.10;;;14.10;99.90;;;;;;5088309;28;20049;-87
2022/07/08 00:33:55;;;;;;;10.88;1.80;;;14.10;99.90;;;;;;5088779;28;20404;-87
2022/07/08 00:36:21;;;;;;;8.85;1.52;;;14.10;99.90;;;;;;5070646;28;20060;-88
2022/07/08 00:38:47;;;;;;;16.95;2.92;;;14.10;99.90;;;;;;5055114;28;20120;-87
2022/07/08 00:41:14;;;;;;;19.52;2.05;;;14.10;99.90;;;;;;5088712;28;20045;-87
2022/07/08 00:43:42;;;;;;;11.88;2.75;;;14.10;99.90;;;;;;5055226;28;20049;-87
2022/07/08 00:46:09;;;;;;;12.40;1.88;;;14.10;99.90;;;;;;5056241;28;20040;-87
2022/07/08 00:48:35;;;;;;;9.60;1.85;;;14.10;99.90;;;;;;5087826;28;20057;-88
2022/07/08 00:51:05;;;;;;;9.27;1.80;;;14.00;99.90;;;;;;5037483;28;20037;-87
2022/07/08 00:53:32;;;;;;;12.98;2.38;;;14.00;99.90;;;;;;5054670;28;20049;-88
2022/07/08 00:55:59;;;;;;;7.95;1.85;;;14.00;99.90;;;;;;5056322;28;20056;-87
2022/07/08 00:58:26;;;;;;;8.70;1.77;;;14.00;99.90;;;;;;5056073;28;20049;-87
2022/07/08 01:00:53;;;;;;;17.13;2.50;;;14.00;99.90;;;;;;5087863;28;20041;-87
2022/07/08 01:03:19;;;;;;;13.65;2.22;;;13.90;99.90;;;;;;5087471;28;20617;-87
2022/07/08 01:05:45;;;;;;;8.48;1.70;;;13.90;99.90;;;;;;5087256;28;20484;-87
2022/07/08 01:08:11;;;;;;;11.60;1.73;;;13.90;99.90;;;;;;5055634;28;20053;-87
2022/07/08 01:10:37;;;;;;;10.57;1.75;;;13.80;99.90;;;;;;5085807;28;20186;-87
2022/07/08 01:13:05;;;;;;;8.60;1.85;;;13.80;99.90;;;;;;5054586;28;20041;-87
2022/07/08 01:15:32;;;;;;;10.48;1.80;;;13.80;99.90;;;;;;5055396;28;20056;-87
2022/07/08 01:17:58;;;;;;;14.05;2.13;;;13.70;99.90;;;;;;5070495;28;20378;-87
2022/07/08 01:20:24;;;;;;;14.10;2.15;;;13.70;99.90;;;;;;5084041;28;20044;-87
2022/07/08 01:22:50;;;;;;;17.83;2.67;;;13.60;99.90;;;;;;5056265;28;20111;-87
2022/07/08 01:25:16;;;;;;;9.98;1.85;;;13.60;99.90;;;;;;5086788;28;20122;-87
2022/07/08 01:27:42;;;;;;;8.73;1.90;;;13.60;99.90;;;;;;5071265;28;20128;-87
2022/07/08 01:30:08;;;;;;;13.20;2.20;;;13.50;99.90;;;;;;5055217;28;20068;-88
2022/07/08 01:32:42;;;;;;;10.65;1.90;;;13.50;99.90;;;;;;5054859;28;20049;-88
2022/07/08 01:35:09;;;;;;;8.93;1.90;;;13.40;99.90;;;;;;5087412;28;20072;-87
2022/07/08 01:37:35;;;;;;;7.15;1.55;;;13.30;99.90;;;;;;5055393;28;20053;-87
2022/07/08 01:40:01;;;;;;;12.60;1.63;;;13.30;99.90;;;;;;5086335;28;20398;-87
2022/07/08 01:42:26;;;;;;;8.15;2.10;;;13.20;99.90;;;;;;5055341;28;20037;-87
2022/07/08 01:44:53;;;;;;;10.50;1.55;;;13.20;99.90;;;;;;5087607;28;20488;-87
2022/07/08 01:47:19;;;;;;;11.73;2.05;;;13.10;99.90;;;;;;5086974;28;20056;-87
2022/07/08 01:49:45;;;;;;;14.38;2.92;;;13.10;99.90;;;;;;5054406;28;20043;-88
2022/07/08 01:52:11;;;;;;;12.15;2.30;;;13.00;99.90;;;;;;5055078;28;20110;-87
2022/07/08 01:54:37;;;;;;;10.23;2.33;;;12.90;99.90;;;;;;5054200;28;20896;-87
2022/07/08 01:57:15;;;;;;;12.18;2.45;;;12.90;99.90;;;;;;5086424;28;20128;-86
2022/07/08 01:59:49;;;;;;;14.38;2.22;;;12.80;99.90;;;;;;5066135;28;20068;-87
2022/07/08 02:02:19;;;;;;;11.30;1.92;;;12.80;99.90;;;;;;5068579;28;20060;-87
2022/07/08 02:04:45;;;;;;;13.40;2.08;;;12.80;99.90;;;;;;5054959;28;20041;-87
2022/07/08 02:07:11;;;;;;;10.98;1.80;;;12.70;99.90;;;;;;5085429;28;20049;-87
2022/07/08 02:09:38;;;;;;;11.73;1.80;;;12.70;99.90;;;;;;5054546;28;20053;-87
2022/07/08 02:12:18;;;;;;;10.85;2.67;;;12.60;99.90;;;;;;5053302;28;20085;-87
2022/07/08 02:14:48;;;;;;;9.32;1.70;;;12.60;99.90;;;;;;5052797;28;20052;-86
2022/07/08 02:17:16;;;;;;;9.57;2.03;;;12.50;99.90;;;;;;5054791;28;20041;-88
2022/07/08 02:19:42;;;;;;;11.63;1.73;;;12.50;99.90;;;;;;5051288;28;20443;-87
2022/07/08 02:22:09;;;;;;;11.15;2.75;;;12.40;99.90;;;;;;5048876;28;20696;-87
2022/07/08 02:24:35;;;;;;;13.73;2.78;;;12.40;99.90;;;;;;5036361;28;20098;-87
2022/07/08 02:27:01;;;;;;;11.90;2.38;;;12.40;99.90;;;;;;5086169;28;20476;-87
2022/07/08 02:29:27;;;;;;;13.85;2.10;;;12.30;99.90;;;;;;5086282;28;20041;-87
2022/07/08 02:31:53;;;;;;;16.23;1.73;;;12.30;99.90;;;;;;5053662;28;20393;-87
2022/07/08 02:34:18;;;;;;;9.48;2.00;;;12.30;99.90;;;;;;5068710;28;20045;-87
2022/07/08 02:36:44;;;;;;;9.35;1.65;;;12.30;99.90;;;;;;5086268;28;20052;-87
2022/07/08 02:39:12;;;;;;;10.40;1.67;;;12.30;99.90;;;;;;5052928;28;20077;-87
2022/07/08 02:41:39;;;;;;;12.90;2.00;;;12.20;99.90;;;;;;5085191;28;20849;-87
2022/07/08 02:44:05;;;;;;;9.02;2.15;;;12.20;99.90;;;;;;5052950;28;20132;-87
2022/07/08 02:46:31;;;;;;;10.20;2.40;;;12.20;99.90;;;;;;5053380;28;20076;-87
2022/07/08 02:48:57;;;;;;;11.77;1.75;;;12.20;99.90;;;;;;5085816;28;20162;-88
2022/07/08 02:51:22;;;;;;;10.15;2.20;;;12.20;99.90;;;;;;5053479;28;20110;-87
2022/07/08 02:53:48;;;;;;;9.50;1.70;;;12.20;99.90;;;;;;5085679;28;20102;-87
2022/07/08 02:56:14;;;;;;;10.75;1.75;;;12.10;99.90;;;;;;5085627;28;20060;-86
2022/07/08 02:58:40;;;;;;;14.30;2.88;;;12.10;99.90;;;;;;5053092;28;20494;-87
2022/07/08 03:01:05;;;;;;;8.38;1.67;;;12.10;99.90;;;;;;5086231;28;20123;-88
2022/07/08 03:03:31;;;;;;;6.60;1.80;;;12.10;99.90;;;;;;5074515;28;20060;-88
2022/07/08 03:05:57;;;;;;;12.85;1.70;;;12.10;99.90;;;;;;5033705;28;20556;-87
2022/07/08 03:08:23;;;;;;;11.45;1.75;;;12.10;99.90;;;;;;5044524;28;20053;-87
2022/07/08 03:10:49;;;;;;;9.00;1.77;;;12.10;99.90;;;;;;5095126;28;20045;-86
2022/07/08 03:13:15;;;;;;;13.50;2.22;;;12.10;99.90;;;;;;5085651;28;20049;-87
2022/07/08 03:15:41;;;;;;;12.18;2.17;;;12.10;99.90;;;;;;5085945;28;20049;-87
2022/07/08 03:18:07;;;;;;;9.95;2.45;;;12.10;99.90;;;;;;5084191;28;20055;-87
2022/07/08 03:20:33;;;;;;;16.58;2.17;;;12.10;99.90;;;;;;5055993;28;20508;-88
2022/07/08 03:22:59;;;;;;;13.30;2.35;;;12.10;99.90;;;;;;5051676;28;20041;-88
2022/07/08 03:25:25;;;;;;;17.30;2.22;;;12.10;99.90;;;;;;5051381;28;20045;-87
2022/07/08 03:27:51;;;;;;;17.80;3.03;;;12.10;99.90;;;;;;5052898;28;20047;-87
2022/07/08 03:30:17;;;;;;;15.13;2.75;;;12.10;99.90;;;;;;5052297;28;20095;-86
2022/07/08 03:32:42;;;;;;;9.13;1.98;;;12.20;99.90;;;;;;5084290;28;20469;-86
2022/07/08 03:35:08;;;;;;;9.10;1.98;;;12.20;99.90;;;;;;5053113;28;20045;-87
2022/07/08 03:37:34;;;;;;;9.23;2.08;;;12.20;99.90;;;;;;5084741;28;20043;-87
2022/07/08 03:41:19;;;;;;;11.32;2.00;;;12.20;99.90;;;;;;5085449;28;20088;-87
2022/07/08 03:42:45;;;;;;;15.45;2.17;;;12.20;99.90;;;;;;5052631;28;20055;-87
2022/07/08 03:45:11;;;;;;;6.60;1.95;;;12.20;99.90;;;;;;5068421;28;20132;-87
2022/07/08 03:47:37;;;;;;;14.50;2.95;;;12.20;99.90;;;;;;5035230;28;20041;-87
2022/07/08 03:50:03;;;;;;;9.32;2.42;;;12.20;99.90;;;;;;5033424;28;20124;-87
2022/07/08 03:52:29;;;;;;;7.45;1.65;;;12.20;99.90;;;;;;5079570;28;20045;-87
2022/07/08 03:54:55;;;;;;;8.18;2.13;;;12.20;99.90;;;;;;5052130;28;20484;-87
2022/07/08 03:57:20;;;;;;;9.60;1.63;;;12.20;99.90;;;;;;5052637;28;20086;-87
2022/07/08 03:59:46;;;;;;;15.23;2.28;;;12.30;99.90;;;;;;5052290;28;20045;-87
2022/07/08 04:02:12;;;;;;;13.45;2.05;;;12.30;99.90;;;;;;5085448;28;20040;-87
2022/07/08 04:04:37;;;;;;;14.98;4.00;;;12.30;99.90;;;;;;5085464;28;20045;-87
2022/07/08 04:07:03;;;;;;;12.88;2.35;;;12.30;99.90;;;;;;5084117;28;20044;-87
2022/07/08 04:09:29;;;;;;;9.95;1.83;;;12.30;99.90;;;;;;5051632;28;20413;-87
2022/07/08 04:11:55;;;;;;;15.75;2.08;;;12.30;99.90;;;;;;5070407;28;20045;-88
2022/07/08 04:14:21;;;;;;;10.48;2.13;;;12.30;99.90;;;;;;5084009;28;20045;-87
2022/07/08 04:16:46;;;;;;;15.75;2.80;;;12.40;99.90;;;;;;5052382;28;20572;-87
2022/07/08 04:19:12;;;;;;;9.10;1.55;;;12.50;99.90;;;;;;5051691;28;20044;-87
2022/07/08 04:21:38;;;;;;;11.30;2.38;;;12.50;99.90;;;;;;5083996;28;20123;-87
2022/07/08 04:24:04;;;;;;;16.58;2.13;;;12.60;99.90;;;;;;5053104;28;20083;-87
2022/07/08 04:26:31;;;;;;;8.15;1.98;;;12.60;99.90;;;;;;5053932;28;20144;-87
2022/07/08 04:28:58;;;;;;;11.10;2.03;;;12.70;99.90;;;;;;5083049;28;20135;-87
2022/07/08 04:31:25;;;;;;;8.60;1.73;;;12.80;99.90;;;;;;5085311;28;20037;-87
2022/07/08 04:33:53;;;;;;;10.18;2.30;;;12.80;99.90;;;;;;5051841;28;20084;-87
2022/07/08 04:36:21;;;;;;;11.38;2.45;;;12.90;99.90;;;;;;5051017;28;20263;-87
2022/07/08 04:38:47;;;;;;;15.15;2.35;;;12.90;99.90;;;;;;5085300;28;20102;-87
2022/07/08 04:41:13;;;;;;;12.10;2.35;;;12.90;99.90;;;;;;5085791;28;20044;-87
2022/07/08 04:43:39;;;;;;;10.07;2.63;;;13.00;99.90;;;;;;5053526;28;20040;-87
2022/07/08 04:46:04;;;;;;;11.95;2.17;;;13.00;99.90;;;;;;5053084;28;20044;-87
2022/07/08 04:48:31;;;;;;;9.80;2.22;;;13.10;99.90;;;;;;5088274;28;20132;-87
2022/07/08 04:50:57;;;;;;;19.10;2.95;;;13.10;99.90;;;;;;5088148;28;20484;-87
2022/07/08 04:53:23;;;;;;;14.90;3.00;;;13.20;99.90;;;;;;5088877;28;20048;-87
2022/07/08 04:55:49;;;;;;;8.25;2.15;;;13.20;99.90;;;;;;5087045;28;20590;-87
2022/07/08 04:58:15;;;;;;;17.25;2.30;;;13.30;99.90;;;;;;5037251;28;20045;-87
2022/07/08 05:00:41;;;;;;;9.25;2.00;;;13.30;99.90;;;;;;5069630;28;20056;-88
2022/07/08 05:03:07;;;;;;;8.98;2.20;;;13.40;99.90;;;;;;5037630;28;20051;-86
2022/07/08 05:05:34;;;;;;;14.75;2.15;;;13.40;99.90;;;;;;5069690;28;20025;-86
2022/07/08 05:08:00;;;;;;;10.18;2.45;;;13.50;99.90;;;;;;5055877;28;20119;-86
2022/07/08 05:10:27;;;;;;;9.15;2.10;;;13.50;99.90;;;;;;5053741;28;20052;-86
2022/07/08 05:12:53;;;;;;;15.07;2.55;;;13.60;99.90;;;;;;5054619;28;20138;-86
2022/07/08 05:15:20;;;;;;;11.60;2.45;;;13.60;99.90;;;;;;5053259;28;20060;-87
2022/07/08 05:17:47;;;;;;;11.43;2.92;;;13.70;99.90;;;;;;5055072;28;20052;-87
2022/07/08 05:20:13;;;;;;;12.98;2.38;;;13.80;99.90;;;;;;5054327;28;20102;-85
2022/07/08 05:22:39;;;;;;;7.50;1.83;;;13.90;99.90;;;;;;5054529;28;20048;-85
2022/07/08 05:25:06;;;;;;;17.60;2.78;;;14.00;99.90;;;;;;5053750;28;20075;-86
2022/07/08 05:27:33;;;;;;;11.38;2.47;;;14.20;99.90;;;;;;5037594;28;20055;-86
2022/07/08 05:29:59;;;;;;;12.65;2.33;;;14.30;99.90;;;;;;5052972;28;20056;-84
2022/07/08 05:32:25;;;;;;;20.77;4.05;;;14.40;99.90;;;;;;5037932;28;20485;-84
2022/07/08 05:34:51;;;;;;;16.42;2.78;;;14.50;99.90;;;;;;5054492;28;20045;-85
2022/07/08 05:37:17;;;;;;;10.30;1.75;;;14.70;99.90;;;;;;5053243;28;20512;-85
2022/07/08 05:39:43;;;;;;;13.45;2.25;;;14.80;99.90;;;;;;5054039;28;20128;-85
2022/07/08 05:42:10;;;;;;;9.48;2.58;;;15.00;99.90;;;;;;5055425;28;20029;-87
2022/07/08 05:44:38;;;;;;;19.08;2.72;;;15.10;99.90;;;;;;5052411;28;20527;-87
2022/07/08 05:47:07;;;;;;;11.60;2.08;;;15.20;99.90;;;;;;5087548;28;20073;-87
2022/07/08 05:49:35;;;;;;;10.60;2.97;;;15.20;99.90;;;;;;5054277;28;20052;-87
2022/07/08 05:52:02;;;;;;;11.15;2.10;;;15.30;99.90;;;;;;5085585;28;20071;-87
2022/07/08 05:54:28;;;;;;;11.70;2.28;;;15.30;99.90;;;;;;5056619;28;20044;-86
2022/07/08 05:56:53;;;;;;;13.73;2.25;;;15.30;99.90;;;;;;5052515;28;20187;-86
2022/07/08 05:59:19;;;;;;;15.75;2.80;;;15.40;99.90;;;;;;5053056;28;20055;-90
2022/07/08 06:01:45;;;;;;;13.13;2.13;;;15.40;99.90;;;;;;5053763;28;20047;-87
2022/07/08 06:04:13;;;;;;;10.85;2.00;;;15.40;99.90;;;;;;5044315;28;20144;-86
2022/07/08 06:06:39;;;;;;;10.43;1.90;;;15.50;99.90;;;;;;5052792;28;20507;-85
2022/07/08 06:09:04;;;;;;;12.43;2.45;;;15.50;99.90;;;;;;5069154;28;20049;-85
2022/07/08 06:11:30;;;;;;;16.45;2.88;;;15.60;99.90;;;;;;5086793;28;20041;-87
2022/07/08 06:13:57;;;;;;;11.40;2.08;;;15.60;99.90;;;;;;5080434;28;20452;-86
2022/07/08 06:16:22;;;;;;;13.68;2.20;;;15.70;99.90;;;;;;5054617;28;20048;-87
2022/07/08 06:18:49;;;;;;;8.13;2.15;;;15.80;99.90;;;;;;5045345;28;20444;-87
2022/07/08 06:21:15;;;;;;;10.38;2.05;;;15.80;99.90;;;;;;5065765;28;20053;-87
2022/07/08 06:23:40;;;;;;;12.07;2.10;;;15.90;99.90;;;;;;5040782;28;20032;-88
2022/07/08 06:26:06;;;;;;;10.27;2.22;;;15.90;99.90;;;;;;5086852;28;20036;-88
2022/07/08 06:28:32;;;;;;;14.93;2.60;;;15.90;99.90;;;;;;5051462;28;20481;-87
2022/07/08 06:30:58;;;;;;;13.85;1.83;;;16.00;99.90;;;;;;5052714;28;20386;-87
2022/07/08 06:33:23;;;;;;;13.27;1.75;;;16.00;99.90;;;;;;5052051;28;20082;-87
2022/07/08 06:35:49;;;;;;;15.52;4.32;;;16.10;99.90;;;;;;5052249;28;20048;-88
2022/07/08 06:38:15;;;;;;;13.32;2.03;;;16.10;99.90;;;;;;5052251;28;20436;-85
2022/07/08 06:40:41;;;;;;;9.00;1.77;;;16.20;99.90;;;;;;5051598;28;20036;-87
2022/07/08 06:43:07;;;;;;;12.32;2.88;;;16.20;99.90;;;;;;5052896;28;20064;-87
2022/07/08 06:45:36;;;;;;;15.25;2.58;;;16.30;99.90;;;;;;5052314;28;20051;-85
2022/07/08 06:48:02;;;;;;;10.00;1.65;;;16.30;99.90;;;;;;5051977;28;20045;-87
2022/07/08 06:50:29;;;;;;;12.60;2.47;;;16.30;99.90;;;;;;5053152;28;20102;-87
2022/07/08 06:52:56;;;;;;;9.45;2.30;;;16.40;99.90;;;;;;5053863;28;20049;-87
2022/07/08 06:55:22;;;;;;;15.02;2.08;;;16.60;99.90;;;;;;5051865;28;20040;-86
2022/07/08 06:57:48;;;;;;;10.20;1.73;;;16.80;99.90;;;;;;5053996;28;20110;-86
2022/07/08 07:00:15;;;;;;;12.95;2.38;;;17.00;99.90;;;;;;5068699;28;20484;-86
2022/07/08 07:02:41;;;;;;;14.88;2.10;;;17.00;99.90;;;;;;5085349;28;20052;-87
2022/07/08 07:05:08;;;;;;;16.60;2.63;;;17.10;99.90;;;;;;5085370;28;20122;-88
2022/07/08 07:07:34;;;;;;;9.95;2.22;;;17.10;99.90;;;;;;5067766;28;20472;-86
2022/07/08 07:10:00;;;;;;;16.50;3.17;;;17.10;99.90;;;;;;5065139;28;20056;-87
2022/07/08 07:12:25;;;;;;;16.63;2.30;;;17.10;99.90;;;;;;5059725;28;20053;-87
2022/07/08 07:14:51;;;;;;;9.85;1.80;;;17.10;99.90;;;;;;5033658;28;20547;-86
2022/07/08 07:17:21;;;;;;;10.27;2.20;;;17.20;99.90;;;;;;5039267;28;20081;-87
2022/07/08 07:19:48;;;;;;;15.13;2.15;;;17.20;99.90;;;;;;5052073;28;20045;-88
2022/07/08 07:22:15;;;;;;;10.27;2.10;;;17.30;99.90;;;;;;5085870;28;20041;-87
2022/07/08 07:24:40;;;;;;;18.00;3.05;;;17.30;99.90;;;;;;5084746;28;20080;-87
2022/07/08 07:27:06;;;;;;;10.23;1.90;;;17.40;99.90;;;;;;5053456;28;20421;-84
2022/07/08 07:29:33;;;;;;;10.18;2.33;;;17.50;99.90;;;;;;5085243;28;20132;-87
2022/07/08 07:31:59;;;;;;;12.57;2.58;;;17.50;99.90;;;;;;5051446;28;20048;-87
2022/07/08 07:34:25;;;;;;;8.32;1.95;;;17.60;99.90;;;;;;5085372;28;20074;-88
2022/07/08 07:36:50;;;;;;;9.15;2.00;;;17.60;99.90;;;;;;5065927;28;20046;-86
2022/07/08 07:39:16;;;;;;;11.32;2.20;;;17.60;99.90;;;;;;5033515;28;20045;-88
2022/07/08 07:41:42;;;;;;;8.73;2.63;;;17.60;99.90;;;;;;5083127;28;20100;-87
2022/07/08 07:44:08;;;;;;;12.38;3.63;;;17.60;99.90;;;;;;5054176;28;20037;-87
2022/07/08 07:46:34;;;;;;;7.88;1.85;;;17.70;99.90;;;;;;5056216;28;20095;-87
2022/07/08 07:49:00;;;;;;;11.32;2.13;;;17.70;99.90;;;;;;5065308;28;20049;-87
2022/07/08 07:51:27;;;;;;;14.00;2.50;;;17.70;99.90;;;;;;5052657;28;20048;-83
2022/07/08 07:53:53;;;;;;;11.73;2.10;;;17.70;99.90;;;;;;5051997;28;20029;-87
2022/07/08 07:56:19;;;;;;;11.27;2.17;;;17.80;99.90;;;;;;5053036;28;20106;-85
2022/07/08 07:58:45;;;;;;;7.35;1.80;;;17.80;99.90;;;;;;5051661;28;20044;-87
2022/07/08 08:01:14;;;;;;;8.95;2.15;;;17.90;99.90;;;;;;5053133;28;20055;-87
2022/07/08 08:03:39;;;;;;;11.10;2.40;;;18.00;99.90;;;;;;5084866;28;20049;-88
2022/07/08 08:06:06;;;;;;;8.35;2.10;;;18.00;99.90;;;;;;5055617;28;20045;-88
2022/07/08 08:08:35;;;;;;;7.22;1.60;;;18.00;99.90;;;;;;5068237;28;20107;-89
2022/07/08 08:11:01;;;;;;;14.02;2.90;;;18.10;99.90;;;;;;5052989;28;20045;-89
2022/07/08 08:13:28;;;;;;;11.82;3.05;;;18.20;99.90;;;;;;5042792;28;20053;-88
2022/07/08 08:15:55;;;;;;;9.30;2.00;;;18.20;99.90;;;;;;5031987;28;20091;-88
2022/07/08 08:18:21;;;;;;;14.93;2.28;;;18.30;99.90;;;;;;5042607;28;20055;-88
2022/07/08 08:20:47;;;;;;;14.35;2.75;;;18.40;99.90;;;;;;5053168;28;20396;-89
2022/07/08 08:23:13;;;;;;;8.68;1.98;;;18.50;99.90;;;;;;5055560;28;20037;-87
2022/07/08 08:25:39;;;;;;;9.23;2.08;;;18.50;99.90;;;;;;5088582;28;20419;-85
2022/07/08 08:28:05;;;;;;;10.88;1.92;;;18.50;99.90;;;;;;5088102;28;20098;-87
2022/07/08 08:30:31;;;;;;;8.13;2.03;;;18.60;99.90;;;;;;5057660;28;20037;-84
2022/07/08 08:32:57;;;;;;;16.25;3.15;;;18.60;99.90;;;;;;5088920;28;20446;-88
2022/07/08 08:35:24;;;;;;;8.95;2.17;;;18.60;99.90;;;;;;5056721;28;20059;-85
2022/07/08 08:37:50;;;;;;;6.53;1.63;;;18.60;99.90;;;;;;5057532;28;20603;-88
2022/07/08 08:40:20;;;;;;;7.32;2.28;;;18.70;99.90;;;;;;5055560;28;20126;-86
2022/07/08 08:42:46;;;;;;;5.80;1.73;;;18.70;99.90;;;;;;5057057;28;20041;-88
2022/07/08 08:45:12;;;;;;;7.57;1.40;;;18.60;99.90;;;;;;5057653;28;20067;-86
2022/07/08 08:47:38;;;;;;;12.23;2.05;;;18.60;99.90;;;;;;5055761;28;20041;-87
2022/07/08 08:52:54;;;;;;;10.75;1.75;;;18.70;99.90;;;;;;5056179;28;20051;-85
2022/07/08 08:55:32;;;;;;;7.43;2.10;;;18.70;99.90;;;;;;5030099;28;20128;-87
2022/07/08 08:58:00;;;;;;;7.43;1.95;;;18.70;99.90;;;;;;5055773;28;20045;-87
2022/07/08 09:00:29;;;;;;;3.97;1.23;;;18.80;99.90;;;;;;5055683;28;20083;-88
2022/07/08 09:02:55;;;;;;;17.13;2.78;;;18.80;99.90;;;;;;5087494;28;20045;-87
2022/07/08 09:05:23;;;;;;;8.82;1.95;;;18.80;99.90;;;;;;5091125;28;20040;-88
2022/07/08 09:07:49;;;;;;;9.25;1.88;;;18.80;99.90;;;;;;5051981;28;20147;-87
2022/07/08 09:10:16;;;;;;;7.57;1.73;;;18.90;99.90;;;;;;5067476;28;20057;-88
2022/07/08 09:13:02;;;;;;;7.53;2.05;;;19.00;99.90;;;;;;5039160;28;20396;-91
2022/07/08 09:15:42;;;;;;;7.07;1.83;;;19.10;99.90;;;;;;5087563;28;20383;-87
2022/07/08 09:18:18;;;;;;;11.25;2.30;;;19.20;99.90;;;;;;5074743;28;20053;-88
2022/07/08 09:20:47;;;;;;;8.57;1.73;;;19.20;99.90;;;;;;5067715;28;20073;-87
2022/07/08 09:23:18;;;;;;;10.93;1.88;;;19.30;99.90;;;;;;5083401;28;20049;-88
2022/07/08 09:25:52;;;;;;;11.35;1.90;;;19.30;99.90;;;;;;5087772;28;20053;-88
2022/07/08 09:28:29;;;;;;;9.75;1.70;;;19.40;99.90;;;;;;5054959;28;20508;-89
2022/07/08 09:30:56;;;;;;;9.68;2.25;;;19.30;99.90;;;;;;5054356;28;20045;-85
2022/07/08 09:33:26;;;;;;;9.52;1.65;;;19.30;99.90;;;;;;5054439;28;20124;-85
2022/07/08 09:35:53;;;;;;;9.82;2.03;;;20.00;99.90;;;;;;5081130;28;20033;-83
2022/07/08 09:38:19;;;;;;;8.23;1.95;;;19.40;99.90;;;;;;5044010;28;20401;-85
2022/07/08 09:41:05;;;;;;;7.40;2.10;;;19.40;99.90;;;;;;5053474;28;20049;-90
2022/07/08 09:43:33;;;;;;;9.90;1.75;;;19.40;99.90;;;;;;5085497;28;20124;-87
2022/07/08 09:46:07;;;;;;;10.20;2.40;;;19.40;99.90;;;;;;5087596;28;20056;-86
2022/07/08 09:48:34;;;;;;;7.93;2.05;;;19.50;99.90;;;;;;5071417;28;20048;-85
2022/07/08 09:51:01;;;;;;;10.43;1.83;;;19.50;99.90;;;;;;5052680;28;20059;-87
2022/07/08 09:53:28;;;;;;;8.43;1.98;;;19.50;99.90;;;;;;5052829;28;20055;-86
2022/07/08 09:55:56;;;;;;;6.03;1.67;;;19.50;99.90;;;;;;5085032;28;20046;-83
2022/07/08 09:58:30;;;;;;;8.77;1.83;;;19.50;99.90;;;;;;5047582;28;20045;-88
2022/07/08 10:00:57;;;;;;;11.40;1.88;;;19.40;99.90;;;;;;5054668;28;20045;-85
2022/07/08 10:03:24;;;;;;;5.70;1.73;;;19.40;99.90;;;;;;5064782;28;20069;-88
2022/07/08 10:05:50;;;;;;;10.20;1.98;;;19.50;99.90;;;;;;5053680;28;20098;-84
2022/07/08 10:08:17;;;;;;;8.10;2.00;;;19.50;99.90;;;;;;5071690;28;20048;-87
2022/07/08 10:10:53;;;;;;;9.00;2.67;;;19.50;99.90;;;;;;5054728;28;20060;-90
2022/07/08 10:13:24;;;;;;;9.18;1.58;;;19.60;99.90;;;;;;5069317;28;20064;-88
2022/07/08 10:15:56;;;;;;;5.78;1.67;;;19.70;99.90;;;;;;5087183;28;20077;-86
2022/07/08 10:18:29;;;;;;;9.13;1.95;;;19.80;99.90;;;;;;5065486;28;20131;-86
2022/07/08 10:20:57;;;;;;;7.00;1.95;;;19.90;99.90;;;;;;5066938;28;20038;-87
2022/07/08 10:23:28;;;;;;;6.97;2.13;;;20.00;99.90;;;;;;5072841;28;20497;-92
2022/07/08 10:25:59;;;;;;;7.82;1.95;;;20.00;99.90;;;;;;5056003;28;20033;-89
2022/07/08 10:28:39;;;;;;;12.00;1.60;;;20.10;99.90;;;;;;5053421;28;20095;-90
2022/07/08 10:31:23;;;;;;;4.50;1.50;;;20.20;99.90;;;;;;5067107;28;20488;-88
2022/07/08 10:33:50;;;;;;;10.63;1.95;;;20.20;99.90;;;;;;5052784;28;20128;-89
2022/07/08 10:36:21;;;;;;;5.95;1.52;;;20.20;99.90;;;;;;5049578;28;20041;-89
2022/07/08 10:38:47;;;;;;;9.35;1.60;;;20.30;99.90;;;;;;5033324;28;20053;-90
2022/07/08 10:41:19;;;;;;;7.07;1.40;;;20.30;99.90;;;;;;5066125;28;20499;-86
2022/07/08 10:44:05;;;;;;;4.47;1.77;;;20.40;99.90;;;;;;5033478;28;20118;-86
2022/07/08 10:46:31;;;;;;;7.82;1.80;;;20.40;99.90;;;;;;5033326;28;20042;-89
2022/07/08 10:48:57;;;;;;;7.78;1.50;;;20.50;99.90;;;;;;5051614;28;20049;-87
2022/07/08 10:51:26;;;;;;;6.75;1.13;;;20.50;99.90;;;;;;5052900;28;20163;-86
2022/07/08 10:53:52;;;;;;;13.73;1.65;;;20.50;99.90;;;;;;5041865;28;20536;-90
2022/07/08 10:56:53;;;;;;;7.18;2.47;;;20.40;99.90;;;;;;5039523;28;20180;-87
2022/07/08 10:59:25;;;;;;;5.70;1.80;;;20.40;99.90;;;;;;5052348;28;20416;-86
2022/07/08 11:02:06;;;;;;;11.57;1.70;;;20.40;99.90;;;;;;5068171;28;20037;-89
2022/07/08 11:04:35;;;;;;;8.60;1.90;;;20.50;99.90;;;;;;5069354;28;20048;-85
2022/07/08 11:07:28;;;;;;;4.68;1.50;;;20.40;99.90;;;;;;5087030;28;20099;-86
2022/07/08 11:09:55;;;;;;;23.10;4.32;;;20.50;99.90;;;;;;5068124;28;20075;-85
2022/07/08 11:12:29;;;;;;;9.35;2.08;;;20.50;99.90;;;;;;5052234;28;20102;-90
2022/07/08 11:14:56;;;;;;;7.13;2.30;;;20.60;99.90;;;;;;5068221;28;20053;-84
2022/07/08 11:17:34;;;;;;;6.13;1.73;;;20.70;99.90;;;;;;5085337;28;20103;-83
2022/07/08 11:20:04;;;;;;;8.57;2.33;;;20.70;99.90;;;;;;5053675;28;20045;-87
2022/07/08 11:22:37;;;;;;;5.85;1.90;;;20.70;99.90;;;;;;5074470;28;20048;-86
2022/07/08 11:25:05;;;;;;;12.60;3.70;;;20.60;99.90;;;;;;5081972;28;20094;-86
2022/07/08 11:27:33;;;;;;;22.88;7.35;;;20.60;99.90;;;;;;5065788;28;20057;-84
2022/07/08 11:30:00;;;;;;;21.98;4.75;;;20.60;99.90;;;;;;5033630;28;20075;-83
2022/07/08 11:32:27;;;;;;;15.05;2.58;;;20.70;99.90;;;;;;5065667;28;20092;-84
2022/07/08 11:34:55;;;;;;;9.07;2.80;;;20.80;99.90;;;;;;5041740;28;20094;-84
2022/07/08 11:37:21;;;;;;;13.25;3.03;;;20.90;99.90;;;;;;5052591;28;20037;-85
2022/07/08 11:39:47;;;;;;;6.18;2.58;;;20.80;99.90;;;;;;5052901;28;20060;-90
2022/07/08 11:42:14;;;;;;;8.82;2.42;;;20.80;99.90;;;;;;5052124;28;20485;-89
2022/07/08 11:44:40;;;;;;;11.15;2.67;;;20.80;99.90;;;;;;5084136;28;20405;-88
2022/07/08 11:47:07;;;;;;;7.70;2.13;;;20.80;99.90;;;;;;5085678;28;20366;-86
2022/07/08 11:49:39;;;;;;;8.52;2.30;;;20.80;99.90;;;;;;5085106;28;20513;-87
2022/07/08 11:52:05;;;;;;;8.07;2.47;;;20.90;99.90;;;;;;5068163;28;20049;-88
2022/07/08 11:54:31;;;;;;;439.48;101.72;;;21.00;99.90;;;;;;5085338;28;20049;-85
2022/07/08 11:56:59;;;;;;;34.60;8.15;;;21.00;99.90;;;;;;5055238;28;20041;-88
2022/07/08 11:59:27;;;;;;;8.75;2.53;;;21.00;99.90;;;;;;5055694;28;20052;-87
2022/07/08 12:01:55;;;;;;;7.43;2.45;;;21.00;99.90;;;;;;5057340;28;20396;-89
2022/07/08 12:04:21;;;;;;;11.15;2.13;;;21.10;99.90;;;;;;5071800;28;20041;-85
2022/07/08 12:06:52;;;;;;;5.72;1.90;;;21.20;99.90;;;;;;5089578;28;20132;-87
2022/07/08 12:09:24;;;;;;;11.52;2.15;;;21.30;99.90;;;;;;5056264;28;20469;-88
2022/07/08 12:11:51;;;;;;;12.35;2.70;;;21.40;99.90;;;;;;5056496;28;20123;-87
2022/07/08 12:14:18;;;;;;;13.15;3.15;;;21.40;99.90;;;;;;5058617;28;20396;-88
2022/07/08 12:16:55;;;;;;;9.63;2.75;;;21.40;99.90;;;;;;5089647;28;20128;-88
2022/07/08 12:19:39;;;;;;;9.13;2.97;;;21.50;99.90;;;;;;5076943;28;20053;-86
2022/07/08 12:22:07;;;;;;;9.30;2.45;;;21.50;99.90;;;;;;5086103;28;20385;-87
2022/07/08 12:24:36;;;;;;;8.60;2.65;;;21.50;99.90;;;;;;5049624;28;20051;-86
2022/07/08 12:27:09;;;;;;;12.57;3.00;;;21.60;99.90;;;;;;5056109;28;20036;-85
2022/07/08 12:29:37;;;;;;;8.10;2.70;;;21.60;99.90;;;;;;5056230;28;20041;-85
2022/07/08 12:32:07;;;;;;;8.38;2.95;;;21.60;99.90;;;;;;5089524;28;20048;-86
2022/07/08 12:34:33;;;;;;;13.20;3.38;;;21.60;99.90;;;;;;5088835;28;20118;-87
2022/07/08 12:37:19;;;;;;;12.18;3.15;;;21.70;99.90;;;;;;5055357;28;20052;-84
2022/07/08 12:39:45;;;;;;;11.15;2.65;;;21.60;99.90;;;;;;5057611;28;20077;-85
2022/07/08 12:42:11;;;;;;;8.13;2.67;;;21.50;99.90;;;;;;5090013;28;20423;-86
2022/07/08 12:44:49;;;;;;;11.77;3.80;;;21.50;99.90;;;;;;5056625;28;20056;-85
2022/07/08 12:47:15;;;;;;;11.25;2.83;;;21.50;99.90;;;;;;5039930;28;20045;-84